createdAt,value
2022-12-07T00:01:19.963Z,100805.44
2022-12-07T00:03:47.954Z,100800.31
2022-12-07T00:06:16.333Z,100795.63
2022-12-07T00:08:42.839Z,100787.72
2022-12-07T00:11:12.608Z,100786.81
2022-12-07T00:13:39.902Z,100783.13
2022-12-07T00:16:12.308Z,100780.72
2022-12-07T00:18:39.050Z,100778.03
2022-12-07T00:21:13.419Z,100776.81
2022-12-07T00:23:41.523Z,100771.47
2022-12-07T00:26:13.892Z,100770.78
2022-12-07T00:28:40.339Z,100771.22
2022-12-07T00:31:10.044Z,100770.25
2022-12-07T00:33:36.903Z,100766.25
2022-12-07T00:36:07.183Z,100766.03
2022-12-07T00:38:35.296Z,100768.50
2022-12-07T00:41:04.544Z,100770.66
2022-12-07T00:43:31.780Z,100770.38
2022-12-07T00:45:59.023Z,100771.00
2022-12-07T00:48:25.547Z,100773.97
2022-12-07T00:50:52.470Z,100772.06
2022-12-07T00:53:18.872Z,100768.31
2022-12-07T00:55:46.503Z,100772.84
2022-12-07T00:58:13.289Z,100764.88
2022-12-07T01:00:42.424Z,100764.16
2022-12-07T01:03:12.214Z,100764.56
2022-12-07T01:05:39.060Z,100758.28
2022-12-07T01:08:06.583Z,100770.84
2022-12-07T01:10:33.436Z,100762.13
2022-12-07T01:13:00.287Z,100755.91
2022-12-07T01:15:27.359Z,100760.91
2022-12-07T01:17:55.630Z,100761.53
2022-12-07T01:20:22.596Z,100760.31
2022-12-07T01:22:49.014Z,100757.13
2022-12-07T01:25:15.924Z,100767.72
2022-12-07T01:27:42.391Z,100759.00
2022-12-07T01:30:10.907Z,100762.41
2022-12-07T01:32:37.437Z,100763.97
2022-12-07T01:35:04.156Z,100768.00
2022-12-07T01:37:35.481Z,100770.25
2022-12-07T01:40:02.115Z,100768.97
2022-12-07T01:42:29.335Z,100773.69
2022-12-07T01:45:26.588Z,100775.06
2022-12-07T01:47:56.636Z,100765.66
2022-12-07T01:50:26.373Z,100767.78
2022-12-07T01:52:57.347Z,100765.00
2022-12-07T01:55:24.685Z,100762.91
2022-12-07T01:57:54.020Z,100754.41
2022-12-07T02:00:20.897Z,100755.63
2022-12-07T02:02:58.383Z,100752.78
2022-12-07T02:05:25.901Z,100749.75
2022-12-07T02:07:55.643Z,100744.81
2022-12-07T02:10:24.970Z,100739.94
2022-12-07T02:12:56.683Z,100746.69
2022-12-07T02:15:28.516Z,100752.16
2022-12-07T02:18:18.019Z,100755.06
2022-12-07T02:21:23.211Z,100743.19
2022-12-07T02:24:26.795Z,100743.97
2022-12-07T02:27:17.100Z,100740.44
2022-12-07T02:29:50.688Z,100745.00
2022-12-07T02:32:24.338Z,100747.34
2022-12-07T02:35:13.438Z,100745.50
2022-12-07T02:37:52.487Z,100745.06
2022-12-07T02:40:22.686Z,100733.06
2022-12-07T02:42:54.590Z,100737.91
2022-12-07T02:45:23.576Z,100740.38
2022-12-07T02:47:54.073Z,100728.00
2022-12-07T02:50:23.587Z,100730.16
2022-12-07T02:52:50.080Z,100724.88
2022-12-07T02:55:19.645Z,100722.88
2022-12-07T02:57:57.864Z,100730.72
2022-12-07T03:00:24.396Z,100726.69
2022-12-07T03:02:59.571Z,100733.13
2022-12-07T03:05:50.577Z,100718.75
2022-12-07T03:08:16.984Z,100718.75
2022-12-07T03:11:01.436Z,100722.47
2022-12-07T03:13:42.157Z,100722.19
2022-12-07T03:16:20.727Z,100720.03
2022-12-07T03:19:00.228Z,100721.53
2022-12-07T03:21:39.255Z,100713.63
2022-12-07T03:24:12.548Z,100725.25
2022-12-07T03:26:51.472Z,100719.00
2022-12-07T03:29:26.357Z,100723.09
2022-12-07T03:32:01.924Z,100719.50
2022-12-07T03:34:37.177Z,100722.59
2022-12-07T03:37:09.542Z,100714.34
2022-12-07T03:39:58.273Z,100710.38
2022-12-07T03:42:24.944Z,100713.09
2022-12-07T03:44:51.693Z,100707.38
2022-12-07T03:47:24.026Z,100705.69
2022-12-07T03:49:54.909Z,100699.94
2022-12-07T03:52:54.697Z,100707.06
2022-12-07T03:55:23.752Z,100702.06
2022-12-07T03:57:54.459Z,100704.53
2022-12-07T04:00:21.058Z,100707.81
2022-12-07T04:02:48.313Z,100705.75
2022-12-07T04:05:14.832Z,100712.88
2022-12-07T04:07:42.187Z,100706.88
2022-12-07T04:10:08.999Z,100710.34
2022-12-07T04:12:35.433Z,100708.44
2022-12-07T04:15:01.911Z,100709.53
2022-12-07T04:17:28.329Z,100707.59
2022-12-07T04:19:54.787Z,100708.69
2022-12-07T04:22:21.211Z,100701.13
2022-12-07T04:24:47.616Z,100702.25
2022-12-07T04:27:14.005Z,100705.09
2022-12-07T04:29:40.468Z,100708.16
2022-12-07T04:32:06.887Z,100709.84
2022-12-07T04:34:33.347Z,100698.09
2022-12-07T04:36:59.832Z,100701.75
2022-12-07T04:39:29.600Z,100700.31
2022-12-07T04:41:57.177Z,100697.59
2022-12-07T04:44:25.431Z,100697.34
2022-12-07T04:46:53.397Z,100693.28
2022-12-07T04:49:20.622Z,100695.50
2022-12-07T04:51:47.491Z,100700.47
2022-12-07T04:54:15.709Z,100696.41
2022-12-07T04:56:42.750Z,100699.28
2022-12-07T04:59:10.988Z,100697.81
2022-12-07T05:01:37.536Z,100705.41
2022-12-07T05:04:04.238Z,100700.34
2022-12-07T05:06:30.822Z,100696.09
2022-12-07T05:08:57.277Z,100693.97
2022-12-07T05:11:41.835Z,100699.50
2022-12-07T05:14:15.888Z,100695.94
2022-12-07T05:16:44.259Z,100693.88
2022-12-07T05:19:11.198Z,100686.41
2022-12-07T05:21:38.523Z,100686.22
2022-12-07T05:24:06.201Z,100687.47
2022-12-07T05:26:33.011Z,100680.28
2022-12-07T05:28:59.567Z,100685.34
2022-12-07T05:31:28.323Z,100679.44
2022-12-07T05:33:55.051Z,100684.50
2022-12-07T05:36:21.794Z,100687.63
2022-12-07T05:38:48.202Z,100686.94
2022-12-07T05:41:36.171Z,100689.78
2022-12-07T05:44:02.902Z,100687.56
2022-12-07T05:46:29.320Z,100691.34
2022-12-07T05:48:55.865Z,100697.28
2022-12-07T05:51:22.459Z,100692.75
2022-12-07T05:53:48.987Z,100694.47
2022-12-07T05:56:15.560Z,100699.38
2022-12-07T05:59:00.758Z,100695.34
2022-12-07T06:01:27.521Z,100706.06
2022-12-07T06:03:53.951Z,100706.06
2022-12-07T06:06:20.497Z,100703.84
2022-12-07T06:08:47.053Z,100714.13
2022-12-07T06:11:31.902Z,100708.63
2022-12-07T06:13:58.350Z,100713.16
2022-12-07T06:16:24.848Z,100710.63
2022-12-07T06:18:51.378Z,100711.94
2022-12-07T06:21:17.789Z,100720.13
2022-12-07T06:23:44.192Z,100715.47
2022-12-07T06:26:10.655Z,100719.00
2022-12-07T06:28:37.112Z,100728.19
2022-12-07T06:31:04.555Z,100729.22
2022-12-07T06:33:32.852Z,100730.72
2022-12-07T06:35:59.240Z,100722.22
2022-12-07T06:38:25.953Z,100723.03
2022-12-07T06:40:52.399Z,100737.31
2022-12-07T06:43:18.855Z,100727.28
2022-12-07T06:45:45.396Z,100735.47
2022-12-07T06:48:11.889Z,100730.41
2022-12-07T06:50:38.572Z,100722.13
2022-12-07T06:53:05.052Z,100726.38
2022-12-07T06:55:31.464Z,100727.19
2022-12-07T06:57:57.923Z,100722.22
2022-12-07T07:00:25.527Z,100731.13
2022-12-07T07:02:52.102Z,100727.09
2022-12-07T07:05:18.681Z,100730.25
2022-12-07T07:08:19.757Z,100739.34
2022-12-07T07:10:31.563Z,100739.34
2022-12-07T07:12:58.015Z,100741.56
2022-12-07T07:15:24.940Z,100734.78
2022-12-07T07:17:51.567Z,100737.06
2022-12-07T07:20:18.316Z,100743.13
2022-12-07T07:22:44.925Z,100750.03
2022-12-07T07:25:11.400Z,100751.66
2022-12-07T07:27:37.837Z,100749.22
2022-12-07T07:30:05.618Z,100754.44
2022-12-07T07:32:32.113Z,100753.44
2022-12-07T07:34:58.575Z,100757.19
2022-12-07T07:37:25.141Z,100757.91
2022-12-07T07:39:51.553Z,100758.84
2022-12-07T07:42:18.153Z,100761.44
2022-12-07T07:44:44.826Z,100756.19
2022-12-07T07:47:11.285Z,100755.53
2022-12-07T07:49:39.883Z,100750.25
2022-12-07T07:52:09.693Z,100753.56
2022-12-07T07:54:36.242Z,100757.53
2022-12-07T07:57:02.720Z,100763.31
2022-12-07T07:59:29.251Z,100763.31
2022-12-07T08:01:55.999Z,100769.47
2022-12-07T08:04:22.660Z,100772.50
2022-12-07T08:06:49.135Z,100771.22
2022-12-07T08:09:15.576Z,100781.09
2022-12-07T08:11:42.034Z,100780.97
2022-12-07T08:14:08.511Z,100776.16
2022-12-07T08:16:34.928Z,100775.00
2022-12-07T08:19:01.363Z,100774.94
2022-12-07T08:21:27.847Z,100785.13
2022-12-07T08:23:54.359Z,100784.84
2022-12-07T08:26:20.891Z,100779.25
2022-12-07T08:28:47.361Z,100781.88
2022-12-07T08:31:17.568Z,100780.44
2022-12-07T08:33:46.628Z,100788.72
2022-12-07T08:36:14.454Z,100784.63
2022-12-07T08:39:07.886Z,100788.69
2022-12-07T08:41:33.558Z,100782.16
2022-12-07T08:44:00.039Z,100791.25
2022-12-07T08:46:40.913Z,100793.31
2022-12-07T08:49:24.416Z,100798.25
2022-12-07T08:51:51.005Z,100805.16
2022-12-07T08:54:19.385Z,100795.91
2022-12-07T08:56:49.471Z,100799.16
2022-12-07T08:59:19.024Z,100792.88
2022-12-07T09:01:45.559Z,100801.25
2022-12-07T09:04:12.268Z,100794.59
2022-12-07T09:06:39.462Z,100789.28
2022-12-07T09:09:07.590Z,100792.22
2022-12-07T09:11:34.041Z,100790.72
2022-12-07T09:14:00.508Z,100787.84
2022-12-07T09:16:27.095Z,100787.19
2022-12-07T09:18:53.568Z,100790.50
2022-12-07T09:21:19.973Z,100796.03
2022-12-07T09:23:46.572Z,100803.00
2022-12-07T09:26:13.048Z,100804.22
2022-12-07T09:28:39.872Z,100802.25
2022-12-07T09:31:23.768Z,100809.59
2022-12-07T09:33:59.104Z,100809.44
2022-12-07T09:36:26.737Z,100799.91
2022-12-07T09:38:53.559Z,100800.84
2022-12-07T09:41:20.993Z,100803.28
2022-12-07T09:43:48.010Z,100801.47
2022-12-07T09:46:18.457Z,100802.22
2022-12-07T09:48:45.851Z,100801.50
2022-12-07T09:51:23.165Z,100802.28
2022-12-07T09:53:53.329Z,100803.34
2022-12-07T09:56:20.953Z,100795.78
2022-12-07T09:58:48.294Z,100791.59
2022-12-07T10:01:16.183Z,100792.72
2022-12-07T10:03:54.044Z,100784.44
2022-12-07T10:06:20.495Z,100778.06
2022-12-07T10:08:47.385Z,100769.22
2022-12-07T10:11:17.992Z,100775.72
2022-12-07T10:13:54.919Z,100768.66
2022-12-07T10:16:39.174Z,100761.44
2022-12-07T10:19:26.869Z,100762.97
2022-12-07T10:22:02.342Z,100760.81
2022-12-07T10:24:29.068Z,100753.94
2022-12-07T10:26:55.981Z,100756.16
2022-12-07T10:29:25.268Z,100750.69
2022-12-07T10:32:04.988Z,100751.44
2022-12-07T10:34:42.600Z,100748.53
2022-12-07T10:37:13.813Z,100749.97
2022-12-07T10:39:51.098Z,100754.88
2022-12-07T10:42:21.101Z,100747.09
2022-12-07T10:44:49.334Z,100752.00
2022-12-07T10:47:38.395Z,100754.75
2022-12-07T10:50:46.921Z,100740.94
2022-12-07T10:53:34.343Z,100738.59
2022-12-07T10:56:23.007Z,100736.59
2022-12-07T10:58:58.496Z,100735.34
2022-12-07T11:01:43.594Z,100733.88
2022-12-07T11:04:25.384Z,100731.72
2022-12-07T11:06:51.725Z,100726.63
2022-12-07T11:09:18.124Z,100721.00
2022-12-07T11:11:57.677Z,100726.81
2022-12-07T11:14:41.821Z,100730.09
2022-12-07T11:17:10.938Z,100720.63
2022-12-07T11:20:13.797Z,100717.00
2022-12-07T11:22:59.335Z,100716.63
2022-12-07T11:25:36.624Z,100718.28
2022-12-07T11:28:47.300Z,100722.25
2022-12-07T11:31:52.090Z,100709.38
2022-12-07T11:34:36.891Z,100700.06
2022-12-07T11:37:09.515Z,100693.72
2022-12-07T11:39:47.244Z,100695.53
2022-12-07T11:42:37.435Z,100688.09
2022-12-07T11:45:11.596Z,100688.97
2022-12-07T11:47:47.621Z,100685.19
2022-12-07T11:50:39.576Z,100675.34
2022-12-07T11:53:08.935Z,100677.31
2022-12-07T11:55:53.942Z,100677.00
2022-12-07T11:58:38.504Z,100672.78
2022-12-07T12:01:20.205Z,100674.19
2022-12-07T12:03:52.798Z,100673.63
2022-12-07T12:06:20.929Z,100668.97
2022-12-07T12:15:23.573Z,100656.19
2022-12-07T12:18:15.011Z,100655.09
2022-12-07T12:20:51.557Z,100647.03
2022-12-07T12:23:44.401Z,100651.78
2022-12-07T12:26:25.904Z,100645.75
2022-12-07T12:29:02.756Z,100640.28
2022-12-07T12:31:29.157Z,100638.31
2022-12-07T12:33:57.966Z,100627.91
2022-12-07T12:36:43.985Z,100631.72
2022-12-07T12:39:15.186Z,100637.91
2022-12-07T12:42:01.845Z,100640.13
2022-12-07T12:44:32.132Z,100633.00
2022-12-07T12:47:02.962Z,100628.59
2022-12-07T12:49:29.333Z,100633.50
2022-12-07T12:52:01.368Z,100629.31
2022-12-07T12:54:37.354Z,100622.97
2022-12-07T12:57:17.457Z,100630.06
2022-12-07T13:00:16.093Z,100621.91
2022-12-07T13:02:54.072Z,100620.81
2022-12-07T13:05:28.290Z,100616.25
2022-12-07T13:08:19.266Z,100611.81
2022-12-07T13:10:48.037Z,100603.84
2022-12-07T13:13:19.934Z,100603.47
2022-12-07T13:16:08.124Z,100602.84
2022-12-07T13:18:34.641Z,100602.28
2022-12-07T13:21:26.336Z,100610.19
2022-12-07T13:24:00.171Z,100598.44
2022-12-07T13:26:43.274Z,100595.38
2022-12-07T13:29:18.604Z,100597.91
2022-12-07T13:31:47.908Z,100589.16
2022-12-07T13:34:44.720Z,100582.59
2022-12-07T13:37:38.550Z,100582.19
2022-12-07T13:40:23.708Z,100578.72
2022-12-07T13:42:58.974Z,100581.22
2022-12-07T13:45:50.488Z,100577.97
2022-12-07T13:48:28.684Z,100574.16
2022-12-07T13:50:56.415Z,100581.66
2022-12-07T13:53:23.433Z,100580.75
2022-12-07T13:55:54.279Z,100581.13
2022-12-07T13:58:21.100Z,100584.38
2022-12-07T14:00:47.608Z,100585.09
2022-12-07T14:03:14.032Z,100580.19
2022-12-07T14:05:42.523Z,100581.84
2022-12-07T14:08:12.029Z,100585.09
2022-12-07T14:10:55.780Z,100583.63
2022-12-07T14:13:37.279Z,100580.56
2022-12-07T14:16:06.856Z,100581.28
2022-12-07T14:18:41.417Z,100586.88
2022-12-07T14:21:17.247Z,100586.25
2022-12-07T14:23:43.868Z,100586.47
2022-12-07T14:26:20.390Z,100589.72
2022-12-07T14:28:47.769Z,100595.84
2022-12-07T14:31:29.618Z,100600.34
2022-12-07T14:34:00.445Z,100598.16
2022-12-07T14:36:26.986Z,100597.44
2022-12-07T14:38:55.167Z,100593.66
2022-12-07T14:41:42.340Z,100586.09
2022-12-07T14:44:34.115Z,100593.88
2022-12-07T14:49:45.867Z,100588.06
2022-12-07T14:55:13.522Z,100601.94
2022-12-07T14:57:39.920Z,100596.47
2022-12-07T15:00:07.065Z,100597.50
2022-12-07T15:02:33.531Z,100592.47
2022-12-07T15:05:00.159Z,100590.44
2022-12-07T15:07:27.503Z,100590.81
2022-12-07T15:09:53.943Z,100593.72
2022-12-07T15:12:20.384Z,100599.34
2022-12-07T15:14:46.835Z,100595.19
2022-12-07T15:17:24.730Z,100595.00
2022-12-07T15:19:52.646Z,100604.81
2022-12-07T15:22:19.075Z,100610.06
2022-12-07T15:24:45.484Z,100606.44
2022-12-07T15:27:11.938Z,100613.19
2022-12-07T15:29:38.358Z,100611.41
2022-12-07T15:32:05.553Z,100607.00
2022-12-07T15:34:39.587Z,100600.78
2022-12-07T15:37:07.356Z,100594.25
2022-12-07T15:39:34.003Z,100593.50
2022-12-07T15:42:00.526Z,100604.41
2022-12-07T15:44:45.230Z,100606.44
2022-12-07T15:47:11.701Z,100596.97
2022-12-07T15:49:38.196Z,100601.69
2022-12-07T15:52:04.778Z,100590.94
2022-12-07T15:54:33.029Z,100602.78
2022-12-07T15:56:59.667Z,100591.31
2022-12-07T15:59:27.799Z,100598.44
2022-12-07T16:01:54.347Z,100607.34
2022-12-07T16:04:21.153Z,100611.03
2022-12-07T16:06:47.933Z,100614.47
2022-12-07T16:09:14.345Z,100610.28
2022-12-07T16:11:40.762Z,100607.41
2022-12-07T16:14:07.227Z,100610.28
2022-12-07T16:16:34.076Z,100598.81
2022-12-07T16:19:00.605Z,100614.28
2022-12-07T16:21:27.067Z,100608.53
2022-12-07T16:23:53.562Z,100612.72
2022-12-07T16:26:22.549Z,100612.50
2022-12-07T16:28:53.636Z,100610.66
2022-12-07T16:31:22.450Z,100607.78
2022-12-07T16:33:50.071Z,100606.88
2022-12-07T16:36:34.352Z,100608.91
2022-12-07T16:39:05.109Z,100614.03
2022-12-07T16:41:32.274Z,100614.41
2022-12-07T16:44:04.041Z,100614.88
2022-12-07T16:46:30.497Z,100610.13
2022-12-07T16:48:56.992Z,100611.13
2022-12-07T16:51:23.408Z,100610.97
2022-12-07T16:53:49.856Z,100612.66
2022-12-07T16:56:17.313Z,100613.41
2022-12-07T16:58:44.093Z,100612.31
2022-12-07T17:01:16.559Z,100615.81
2022-12-07T17:03:43.721Z,100612.38
2022-12-07T17:06:16.189Z,100617.44
2022-12-07T17:08:43.463Z,100619.03
2022-12-07T17:11:31.737Z,100613.78
2022-12-07T17:14:16.919Z,100622.88
2022-12-07T17:16:43.417Z,100623.56
2022-12-07T17:19:12.876Z,100625.75
2022-12-07T17:21:39.699Z,100625.06
2022-12-07T17:24:08.911Z,100628.72
2022-12-07T17:26:36.371Z,100621.09
2022-12-07T17:29:06.024Z,100619.81
2022-12-07T17:31:33.403Z,100622.19
2022-12-07T17:34:00.249Z,100623.28
2022-12-07T17:36:29.363Z,100625.81
2022-12-07T17:38:56.333Z,100625.59
2022-12-07T17:41:45.248Z,100626.50
2022-12-07T17:44:17.284Z,100626.88
2022-12-07T17:46:45.161Z,100630.84
2022-12-07T17:49:11.869Z,100615.22
2022-12-07T17:51:57.109Z,100615.03
2022-12-07T17:54:23.823Z,100614.88
2022-12-07T17:56:50.814Z,100623.94
2022-12-07T17:59:17.621Z,100619.56
2022-12-07T18:01:45.057Z,100616.28
2022-12-07T18:04:11.675Z,100620.31
2022-12-07T18:06:38.546Z,100618.16
2022-12-07T18:09:05.614Z,100621.81
2022-12-07T18:11:32.561Z,100616.03
2022-12-07T18:13:59.763Z,100618.22
2022-12-07T18:16:29.660Z,100614.63
2022-12-07T18:18:59.432Z,100619.16
2022-12-07T18:21:28.073Z,100625.88
2022-12-07T18:23:57.286Z,100632.44
2022-12-07T18:26:25.791Z,100633.50
2022-12-07T18:28:52.648Z,100633.16
2022-12-07T18:31:20.345Z,100635.69
2022-12-07T18:33:48.134Z,100638.59
2022-12-07T18:36:16.170Z,100636.38
2022-12-07T18:38:43.004Z,100640.41
2022-12-07T18:41:12.460Z,100640.75
2022-12-07T18:43:39.036Z,100635.28
2022-12-07T18:46:21.450Z,100634.72
2022-12-07T18:48:50.299Z,100638.94
2022-12-07T18:51:17.834Z,100643.28
2022-12-07T18:53:44.434Z,100644.94
2022-12-07T18:56:16.675Z,100638.19
2022-12-07T18:59:02.323Z,100641.84
2022-12-07T19:01:31.939Z,100644.59
2022-12-07T19:03:59.562Z,100645.16
2022-12-07T19:06:26.743Z,100654.22
2022-12-07T19:08:54.411Z,100646.25
2022-12-07T19:11:46.539Z,100648.41
2022-12-07T19:14:14.260Z,100643.91
2022-12-07T19:16:42.995Z,100655.28
2022-12-07T19:19:09.538Z,100653.84
2022-12-07T19:21:36.066Z,100658.22
2022-12-07T19:24:07.081Z,100652.38
2022-12-07T19:26:34.121Z,100655.13
2022-12-07T19:29:00.780Z,100655.13
2022-12-07T19:31:27.295Z,100658.91
2022-12-07T19:33:53.823Z,100658.56
2022-12-07T19:36:20.233Z,100660.53
2022-12-07T19:38:46.675Z,100662.53
2022-12-07T19:41:32.753Z,100651.09
2022-12-07T19:44:09.345Z,100648.75
2022-12-07T19:46:35.856Z,100657.84
2022-12-07T19:49:02.668Z,100660.19
2022-12-07T19:51:30.799Z,100663.31
2022-12-07T19:53:59.207Z,100659.66
2022-12-07T19:56:28.261Z,100662.38
2022-12-07T19:58:55.289Z,100665.63
2022-12-07T20:01:22.070Z,100668.19
2022-12-07T20:03:48.709Z,100672.53
2022-12-07T20:06:20.243Z,100670.56
2022-12-07T20:08:47.514Z,100667.66
2022-12-07T20:11:34.350Z,100677.06
2022-12-07T20:14:01.244Z,100671.28
2022-12-07T20:16:27.906Z,100671.63
2022-12-07T20:18:57.857Z,100669.09
2022-12-07T20:21:24.989Z,100668.38
2022-12-07T20:23:51.792Z,100679.25
2022-12-07T20:26:18.722Z,100676.38
2022-12-07T20:28:46.231Z,100675.63
2022-12-07T20:31:16.917Z,100678.69
2022-12-07T20:33:46.441Z,100679.63
2022-12-07T20:36:15.233Z,100681.41
2022-12-07T20:38:43.151Z,100681.59
2022-12-07T20:41:31.152Z,100679.59
2022-12-07T20:43:57.655Z,100687.94
2022-12-07T20:46:24.485Z,100694.84
2022-12-07T20:48:51.423Z,100689.59
2022-12-07T20:51:18.868Z,100689.06
2022-12-07T20:53:45.426Z,100687.22
2022-12-07T20:56:20.546Z,100684.31
2022-12-07T20:58:47.675Z,100688.69
2022-12-07T21:01:15.003Z,100677.22
2022-12-07T21:03:41.841Z,100669.97
2022-12-07T21:06:12.209Z,100668.34
2022-12-07T21:08:38.740Z,100675.06
2022-12-07T21:11:09.139Z,100671.97
2022-12-07T21:13:35.580Z,100678.50
2022-12-07T21:16:07.511Z,100669.81
2022-12-07T21:18:34.314Z,100670.91
2022-12-07T21:21:04.748Z,100668.72
2022-12-07T21:23:31.938Z,100668.34
2022-12-07T21:25:58.509Z,100665.63
2022-12-07T21:28:24.944Z,100659.28
2022-12-07T21:31:12.522Z,100658.91
2022-12-07T21:33:40.291Z,100662.53
2022-12-07T21:36:07.982Z,100653.81
2022-12-07T21:38:34.508Z,100659.66
2022-12-07T21:41:09.950Z,100664.38
2022-12-07T21:43:36.363Z,100662.75
2022-12-07T21:46:02.852Z,100662.94
2022-12-07T21:48:29.383Z,100659.09
2022-12-07T21:50:55.808Z,100672.00
2022-12-07T21:53:22.238Z,100677.41
2022-12-07T21:55:48.825Z,100672.88
2022-12-07T21:58:15.433Z,100668.16
2022-12-07T22:00:41.839Z,100684.34
2022-12-07T22:03:12.180Z,100679.25
2022-12-07T22:05:38.649Z,100691.75
2022-12-07T22:08:05.454Z,100687.41
2022-12-07T22:10:31.985Z,100676.69
2022-12-07T22:12:59.460Z,100679.59
2022-12-07T22:15:27.372Z,100681.22
2022-12-07T22:17:55.673Z,100679.03
2022-12-07T22:20:23.442Z,100675.25
2022-12-07T22:22:50.272Z,100673.22
2022-12-07T22:25:16.780Z,100667.59
2022-12-07T22:27:43.586Z,100675.59
2022-12-07T22:30:11.998Z,100672.13
2022-12-07T22:32:48.238Z,100671.91
2022-12-07T22:35:15.584Z,100670.66
2022-12-07T22:37:42.040Z,100674.84
2022-12-07T22:40:08.865Z,100675.59
2022-12-07T22:42:35.351Z,100680.66
2022-12-07T22:45:02.019Z,100673.94
2022-12-07T22:47:28.653Z,100664.66
2022-12-07T22:49:55.645Z,100664.81
2022-12-07T22:52:22.203Z,100673.38
2022-12-07T22:54:49.042Z,100666.66
2022-12-07T22:57:15.520Z,100667.91
2022-12-07T22:59:42.331Z,100664.25
2022-12-07T23:02:08.972Z,100663.03
2022-12-07T23:04:35.537Z,100662.28
2022-12-07T23:07:02.063Z,100657.22
2022-12-07T23:09:28.562Z,100662.50
2022-12-07T23:12:13.538Z,100672.69
2022-12-07T23:14:40.017Z,100661.06
2022-12-07T23:17:06.818Z,100661.06
2022-12-07T23:19:33.306Z,100656.53
2022-12-07T23:22:00.107Z,100648.69
2022-12-07T23:24:27.028Z,100655.94
2022-12-07T23:26:53.543Z,100649.97
2022-12-07T23:29:19.971Z,100642.84
2022-12-07T23:31:47.904Z,100647.94
2022-12-07T23:34:14.465Z,100652.63
2022-12-07T23:36:40.906Z,100645.41
2022-12-07T23:39:07.457Z,100647.72
2022-12-07T23:41:33.957Z,100644.47
2022-12-07T23:44:01.865Z,100641.72
2022-12-07T23:46:30.825Z,100639.34
2022-12-07T23:48:58.468Z,100642.84
2022-12-07T23:51:25.367Z,100634.66
2022-12-07T23:53:53.214Z,100627.38
2022-12-07T23:56:25.766Z,100638.97
2022-12-07T23:58:53.642Z,100631.56
